createdAt,value
2022-12-25T00:01:21.263Z,8.23
2022-12-25T00:03:23.396Z,8.53
2022-12-25T00:05:25.575Z,8.60
2022-12-25T00:07:27.766Z,8.03
2022-12-25T00:09:30.052Z,8.70
2022-12-25T00:11:31.990Z,8.50
2022-12-25T00:13:34.012Z,8.67
2022-12-25T00:15:40.090Z,8.30
2022-12-25T00:17:42.197Z,8.70
2022-12-25T00:19:44.380Z,7.17
2022-12-25T00:21:46.478Z,9.07
2022-12-25T00:23:53.051Z,8.67
2022-12-25T00:25:55.646Z,7.67
2022-12-25T00:27:57.824Z,6.40
2022-12-25T00:30:00.895Z,7.20
2022-12-25T00:32:02.989Z,6.60
2022-12-25T00:34:05.238Z,6.50
2022-12-25T00:36:08.772Z,6.33
2022-12-25T00:38:10.894Z,7.10
2022-12-25T00:40:13.240Z,6.37
2022-12-25T00:42:21.181Z,6.10
2022-12-25T00:44:23.259Z,6.03
2022-12-25T00:46:25.290Z,6.83
2022-12-25T00:48:28.083Z,6.40
2022-12-25T00:50:30.353Z,7.83
2022-12-25T00:52:32.532Z,8.70
2022-12-25T00:54:34.583Z,7.30
2022-12-25T00:56:36.553Z,7.33
2022-12-25T00:58:38.534Z,8.00
2022-12-25T01:00:40.503Z,7.50
2022-12-25T01:02:42.555Z,7.90
2022-12-25T01:04:44.597Z,7.37
2022-12-25T01:06:46.551Z,9.20
2022-12-25T01:09:07.333Z,7.97
2022-12-25T01:11:09.493Z,9.10
2022-12-25T01:13:11.569Z,8.37
2022-12-25T01:15:13.824Z,8.13
2022-12-25T01:17:15.737Z,6.80
2022-12-25T01:19:17.781Z,7.73
2022-12-25T01:21:23.942Z,7.60
2022-12-25T01:23:25.919Z,7.53
2022-12-25T01:25:27.915Z,6.80
2022-12-25T01:27:29.947Z,7.17
2022-12-25T01:29:32.011Z,7.40
2022-12-25T01:31:34.067Z,6.50
2022-12-25T01:33:36.097Z,7.10
2022-12-25T01:35:39.886Z,7.27
2022-12-25T01:37:41.937Z,7.40
2022-12-25T01:39:44.161Z,7.07
2022-12-25T01:41:46.280Z,6.47
2022-12-25T01:44:01.703Z,6.60
2022-12-25T01:46:06.620Z,7.00
2022-12-25T01:48:13.440Z,6.70
2022-12-25T01:50:15.563Z,7.03
2022-12-25T01:52:24.288Z,7.27
2022-12-25T01:54:30.388Z,7.10
2022-12-25T01:56:33.527Z,6.57
2022-12-25T01:58:36.177Z,6.43
2022-12-25T02:00:41.552Z,7.10
2022-12-25T02:02:44.576Z,7.23
2022-12-25T02:04:54.705Z,6.17
2022-12-25T02:06:57.147Z,6.10
2022-12-25T02:08:59.363Z,7.13
2022-12-25T02:11:01.355Z,6.07
2022-12-25T02:13:07.176Z,5.50
2022-12-25T02:15:12.069Z,5.77
2022-12-25T02:17:27.629Z,6.97
2022-12-25T02:19:57.234Z,7.00
2022-12-25T02:21:59.175Z,6.80
2022-12-25T02:24:25.228Z,6.77
2022-12-25T02:27:11.837Z,6.30
2022-12-25T02:29:32.362Z,5.77
2022-12-25T02:32:20.946Z,6.00
2022-12-25T02:34:34.372Z,5.87
2022-12-25T02:36:50.811Z,5.70
2022-12-25T02:39:14.669Z,6.07
2022-12-25T02:41:17.499Z,5.90
2022-12-25T02:43:53.108Z,6.47
2022-12-25T02:46:22.387Z,6.80
2022-12-25T02:48:45.459Z,5.77
2022-12-25T02:51:06.504Z,5.50
2022-12-25T02:53:27.974Z,6.73
2022-12-25T02:55:56.440Z,5.40
2022-12-25T02:58:21.224Z,6.13
2022-12-25T03:00:41.936Z,6.47
2022-12-25T03:03:03.787Z,6.60
2022-12-25T03:05:26.848Z,6.43
2022-12-25T03:07:30.449Z,8.03
2022-12-25T03:10:14.940Z,6.37
2022-12-25T03:12:28.627Z,6.47
2022-12-25T03:14:49.304Z,6.90
2022-12-25T03:16:55.258Z,6.10
2022-12-25T03:18:58.297Z,5.90
2022-12-25T03:21:19.408Z,7.73
2022-12-25T03:23:41.983Z,7.80
2022-12-25T03:26:02.959Z,6.37
2022-12-25T03:28:05.823Z,7.70
2022-12-25T03:30:27.587Z,5.87
2022-12-25T03:32:58.666Z,6.53
2022-12-25T03:35:23.762Z,6.70
2022-12-25T03:37:45.867Z,5.80
2022-12-25T03:39:53.740Z,7.40
2022-12-25T03:42:18.613Z,7.60
2022-12-25T03:44:53.130Z,6.70
2022-12-25T03:47:24.376Z,7.03
2022-12-25T03:50:05.209Z,6.40
2022-12-25T03:52:28.618Z,7.17
2022-12-25T03:54:52.509Z,7.00
2022-12-25T03:57:14.173Z,7.23
2022-12-25T03:59:38.754Z,7.40
2022-12-25T04:01:59.826Z,6.97
2022-12-25T04:04:20.379Z,6.83
2022-12-25T04:06:40.600Z,7.23
2022-12-25T04:09:01.281Z,9.27
2022-12-25T04:11:21.930Z,8.17
2022-12-25T04:13:42.145Z,7.87
2022-12-25T04:16:02.920Z,8.10
2022-12-25T04:18:23.905Z,8.20
2022-12-25T04:20:44.222Z,7.23
2022-12-25T04:23:04.722Z,8.07
2022-12-25T04:25:25.418Z,10.90
2022-12-25T04:27:46.269Z,8.07
2022-12-25T04:30:06.762Z,9.37
2022-12-25T04:32:27.549Z,8.40
2022-12-25T04:34:48.231Z,8.10
2022-12-25T04:36:50.228Z,9.17
2022-12-25T04:38:52.185Z,9.10
2022-12-25T04:40:54.171Z,8.70
2022-12-25T04:42:56.226Z,7.60
2022-12-25T04:44:58.224Z,9.60
2022-12-25T04:47:01.756Z,8.70
2022-12-25T04:49:05.635Z,9.10
2022-12-25T04:51:25.974Z,8.17
2022-12-25T04:53:27.957Z,8.50
2022-12-25T04:55:29.983Z,8.57
2022-12-25T04:57:33.523Z,7.63
2022-12-25T04:59:35.471Z,9.23
2022-12-25T05:01:37.669Z,7.73
2022-12-25T05:03:40.388Z,7.90
2022-12-25T05:05:42.437Z,8.00
2022-12-25T05:07:44.450Z,7.90
2022-12-25T05:09:46.372Z,9.00
2022-12-25T05:11:48.443Z,7.47
2022-12-25T05:13:50.572Z,7.63
2022-12-25T05:15:52.733Z,9.70
2022-12-25T05:17:55.058Z,9.20
2022-12-25T05:19:57.121Z,7.83
2022-12-25T05:21:59.119Z,7.93
2022-12-25T05:24:01.207Z,8.80
2022-12-25T05:26:07.448Z,7.40
2022-12-25T05:28:09.581Z,7.80
2022-12-25T05:30:11.771Z,8.03
2022-12-25T05:32:13.769Z,7.77
2022-12-25T05:34:15.810Z,8.43
2022-12-25T05:36:18.097Z,8.10
2022-12-25T05:38:20.192Z,8.57
2022-12-25T05:40:22.431Z,7.80
2022-12-25T05:42:24.738Z,7.20
2022-12-25T05:44:26.788Z,7.70
2022-12-25T05:46:28.826Z,8.10
2022-12-25T05:48:30.877Z,7.77
2022-12-25T05:50:32.925Z,8.33
2022-12-25T05:52:41.007Z,8.00
2022-12-25T05:54:43.749Z,7.63
2022-12-25T05:56:46.073Z,7.80
2022-12-25T05:58:48.172Z,7.30
2022-12-25T06:00:50.213Z,7.33
2022-12-25T06:02:52.352Z,7.10
2022-12-25T06:04:54.457Z,7.23
2022-12-25T06:06:56.470Z,7.87
2022-12-25T06:08:58.457Z,8.13
2022-12-25T06:11:04.514Z,8.27
2022-12-25T06:13:06.623Z,8.00
2022-12-25T06:15:09.229Z,8.27
2022-12-25T06:17:11.215Z,8.33
2022-12-25T06:19:13.240Z,8.47
2022-12-25T06:21:16.001Z,7.97
2022-12-25T06:23:17.996Z,8.30
2022-12-25T06:25:20.008Z,7.10
2022-12-25T06:27:22.065Z,8.33
2022-12-25T06:29:24.079Z,8.60
2022-12-25T06:31:26.197Z,7.07
2022-12-25T06:33:28.177Z,8.17
2022-12-25T06:35:30.238Z,8.63
2022-12-25T06:37:32.359Z,8.70
2022-12-25T06:39:34.398Z,9.20
2022-12-25T06:41:36.566Z,10.60
2022-12-25T06:43:38.882Z,9.73
2022-12-25T06:45:40.948Z,11.13
2022-12-25T06:47:43.155Z,11.77
2022-12-25T06:49:45.280Z,10.50
2022-12-25T06:51:47.719Z,9.20
2022-12-25T06:53:50.651Z,11.00
2022-12-25T06:55:52.689Z,11.40
2022-12-25T06:57:54.693Z,12.73
2022-12-25T06:59:56.650Z,9.20
2022-12-25T07:01:59.008Z,10.77
2022-12-25T07:04:13.863Z,10.23
2022-12-25T07:06:15.826Z,10.70
2022-12-25T07:08:17.809Z,9.20
2022-12-25T07:10:19.798Z,9.90
2022-12-25T07:12:23.730Z,10.13
2022-12-25T07:14:25.842Z,9.67
2022-12-25T07:16:27.968Z,10.20
2022-12-25T07:18:31.142Z,9.87
2022-12-25T07:20:33.139Z,11.03
2022-12-25T07:22:35.277Z,11.40
2022-12-25T07:24:37.317Z,11.27
2022-12-25T07:26:39.284Z,13.13
2022-12-25T07:28:41.422Z,11.47
2022-12-25T07:30:43.363Z,12.70
2022-12-25T07:32:49.975Z,12.20
2022-12-25T07:34:52.367Z,10.60
2022-12-25T07:36:55.146Z,11.63
2022-12-25T07:38:57.284Z,11.77
2022-12-25T07:40:59.337Z,11.93
2022-12-25T07:43:01.366Z,11.37
2022-12-25T07:45:05.121Z,12.10
2022-12-25T07:47:07.102Z,11.40
2022-12-25T07:49:09.168Z,12.70
2022-12-25T07:51:12.808Z,12.53
2022-12-25T07:53:14.795Z,15.00
2022-12-25T07:55:16.855Z,14.87
2022-12-25T07:57:18.840Z,13.97
2022-12-25T07:59:20.915Z,13.40
2022-12-25T08:01:25.552Z,13.70
2022-12-25T08:03:27.668Z,13.13
2022-12-25T08:05:29.751Z,13.23
2022-12-25T08:07:31.754Z,13.53
2022-12-25T08:09:35.275Z,13.87
2022-12-25T08:11:37.845Z,13.80
2022-12-25T08:13:40.232Z,13.83
2022-12-25T08:15:42.265Z,13.57
2022-12-25T08:17:44.322Z,13.70
2022-12-25T08:19:46.366Z,11.20
2022-12-25T08:21:48.375Z,12.30
2022-12-25T08:23:50.529Z,12.40
2022-12-25T08:25:52.558Z,12.00
2022-12-25T08:27:54.670Z,12.57
2022-12-25T08:29:56.869Z,12.07
2022-12-25T08:32:01.186Z,12.57
2022-12-25T08:34:04.418Z,14.10
2022-12-25T08:36:08.503Z,12.60
2022-12-25T08:38:10.545Z,13.40
2022-12-25T08:40:13.129Z,12.33
2022-12-25T08:42:15.371Z,11.67
2022-12-25T08:44:17.385Z,11.07
2022-12-25T08:46:19.527Z,12.07
2022-12-25T08:48:21.721Z,11.10
2022-12-25T08:50:24.358Z,11.87
2022-12-25T08:52:26.388Z,11.93
2022-12-25T08:54:28.405Z,11.00
2022-12-25T08:56:30.568Z,10.73
2022-12-25T08:58:33.141Z,10.43
2022-12-25T09:00:35.166Z,10.27
2022-12-25T09:02:37.396Z,10.53
2022-12-25T09:04:39.488Z,10.57
2022-12-25T09:06:41.850Z,9.30
2022-12-25T09:08:49.195Z,9.20
2022-12-25T09:10:51.928Z,9.63
2022-12-25T09:12:53.893Z,10.70
2022-12-25T09:14:55.863Z,11.33
2022-12-25T09:16:57.906Z,10.97
2022-12-25T09:19:00.067Z,10.67
2022-12-25T09:21:04.286Z,11.10
2022-12-25T09:23:13.294Z,11.10
2022-12-25T09:25:15.968Z,10.60
2022-12-25T09:27:17.926Z,10.40
2022-12-25T09:29:20.043Z,11.40
2022-12-25T09:31:22.932Z,11.87
2022-12-25T09:33:25.427Z,12.70
2022-12-25T09:35:27.525Z,10.80
2022-12-25T09:37:29.573Z,8.60
2022-12-25T09:39:31.594Z,7.90
2022-12-25T09:41:52.033Z,7.43
2022-12-25T09:44:04.327Z,7.27
2022-12-25T09:46:07.943Z,7.40
2022-12-25T09:48:12.781Z,7.43
2022-12-25T09:50:22.988Z,7.60
2022-12-25T09:53:01.156Z,6.30
2022-12-25T09:55:17.885Z,7.60
2022-12-25T09:57:24.267Z,7.27
2022-12-25T09:59:27.316Z,7.87
2022-12-25T10:01:40.235Z,7.60
2022-12-25T10:03:58.851Z,7.07
2022-12-25T10:06:33.067Z,6.40
2022-12-25T10:08:49.766Z,7.10
2022-12-25T10:10:56.046Z,6.77
2022-12-25T10:13:06.236Z,8.33
2022-12-25T10:15:19.472Z,7.77
2022-12-25T10:17:37.199Z,7.10
2022-12-25T10:19:52.778Z,7.13
2022-12-25T10:21:57.639Z,6.83
2022-12-25T10:24:18.046Z,7.00
2022-12-25T10:26:22.186Z,8.10
2022-12-25T10:28:35.305Z,8.83
2022-12-25T10:30:37.902Z,8.20
2022-12-25T10:32:40.008Z,7.60
2022-12-25T10:34:43.691Z,7.47
2022-12-25T10:36:46.618Z,8.07
2022-12-25T10:38:49.250Z,8.30
2022-12-25T10:40:53.974Z,7.83
2022-12-25T10:43:01.517Z,8.10
2022-12-25T10:45:07.962Z,8.57
2022-12-25T10:47:10.039Z,7.73
2022-12-25T10:49:15.524Z,7.40
2022-12-25T10:51:35.351Z,8.50
2022-12-25T10:53:42.341Z,8.90
2022-12-25T10:56:03.750Z,8.10
2022-12-25T10:58:06.162Z,9.83
2022-12-25T11:00:20.689Z,9.77
2022-12-25T11:02:25.637Z,8.43
2022-12-25T11:04:28.705Z,9.10
2022-12-25T11:06:32.342Z,8.97
2022-12-25T11:08:35.062Z,10.10
2022-12-25T11:10:38.936Z,8.93
2022-12-25T11:12:43.375Z,9.30
2022-12-25T11:14:54.258Z,8.60
2022-12-25T11:17:07.610Z,8.67
2022-12-25T11:19:24.213Z,8.30
2022-12-25T11:21:31.729Z,10.50
2022-12-25T11:23:33.833Z,9.00
2022-12-25T11:25:35.930Z,9.27
2022-12-25T11:27:37.984Z,9.77
2022-12-25T11:29:57.793Z,9.90
2022-12-25T11:32:00.763Z,11.60
2022-12-25T11:34:10.883Z,10.87
2022-12-25T11:36:23.171Z,9.97
2022-12-25T11:38:25.229Z,10.17
2022-12-25T11:40:40.902Z,9.90
2022-12-25T11:42:51.084Z,10.37
2022-12-25T11:45:08.888Z,11.30
2022-12-25T11:47:38.545Z,10.90
2022-12-25T11:49:50.074Z,11.87
2022-12-25T11:51:55.229Z,10.83
2022-12-25T11:54:08.014Z,11.07
2022-12-25T11:56:15.022Z,10.70
2022-12-25T11:58:32.116Z,10.30
2022-12-25T12:00:35.496Z,9.60
2022-12-25T12:02:37.548Z,10.73
2022-12-25T12:04:44.359Z,10.23
2022-12-25T12:06:53.618Z,10.27
2022-12-25T12:09:05.426Z,10.30
2022-12-25T12:11:24.106Z,9.10
2022-12-25T12:13:36.805Z,10.53
2022-12-25T12:15:48.666Z,8.93
2022-12-25T12:17:50.661Z,10.77
2022-12-25T12:19:52.804Z,10.43
2022-12-25T12:21:57.452Z,10.10
2022-12-25T12:24:17.833Z,11.27
2022-12-25T12:26:25.693Z,10.20
2022-12-25T12:28:29.929Z,10.83
2022-12-25T12:30:35.384Z,9.97
2022-12-25T12:32:37.430Z,10.30
2022-12-25T12:34:43.752Z,10.83
2022-12-25T12:36:45.815Z,11.07
2022-12-25T12:38:49.432Z,11.97
2022-12-25T12:41:18.291Z,12.20
2022-12-25T12:43:43.277Z,11.87
2022-12-25T12:45:45.309Z,12.27
2022-12-25T12:47:49.293Z,9.57
2022-12-25T12:50:00.315Z,10.67
2022-12-25T12:52:20.940Z,11.70
2022-12-25T12:54:27.982Z,10.03
2022-12-25T12:56:30.057Z,10.33
2022-12-25T12:58:34.925Z,10.17
2022-12-25T13:00:43.417Z,10.40
2022-12-25T13:03:01.685Z,10.37
2022-12-25T13:05:34.853Z,11.10
2022-12-25T13:08:12.350Z,10.90
2022-12-25T13:10:20.359Z,10.83
2022-12-25T13:12:22.713Z,10.23
2022-12-25T13:14:25.213Z,11.20
2022-12-25T13:16:29.447Z,10.20
2022-12-25T13:18:33.118Z,10.13
2022-12-25T13:21:16.801Z,10.63
2022-12-25T13:23:26.315Z,11.57
2022-12-25T13:25:28.410Z,9.47
2022-12-25T13:27:32.410Z,10.80
2022-12-25T13:29:39.018Z,11.13
2022-12-25T13:31:41.375Z,10.87
2022-12-25T13:33:52.419Z,11.70
2022-12-25T13:35:54.684Z,12.33
2022-12-25T13:37:56.854Z,12.70
2022-12-25T13:40:04.549Z,13.77
2022-12-25T13:42:09.398Z,13.00
2022-12-25T13:44:26.673Z,11.30
2022-12-25T13:46:30.233Z,11.00
2022-12-25T13:48:32.578Z,9.60
2022-12-25T13:50:35.039Z,11.53
2022-12-25T13:52:37.972Z,10.80
2022-12-25T13:54:40.457Z,11.47
2022-12-25T13:56:54.022Z,10.80
2022-12-25T13:58:56.011Z,10.10
2022-12-25T14:00:59.944Z,11.80
2022-12-25T14:03:03.675Z,12.27
2022-12-25T14:05:39.799Z,11.27
2022-12-25T14:07:51.225Z,11.20
2022-12-25T14:10:00.617Z,10.70
2022-12-25T14:12:04.254Z,10.73
2022-12-25T14:14:17.450Z,11.77
2022-12-25T14:16:20.250Z,11.47
2022-12-25T14:18:24.110Z,10.77
2022-12-25T14:20:33.572Z,11.23
2022-12-25T14:22:37.846Z,9.53
2022-12-25T14:24:40.487Z,9.50
2022-12-25T14:26:43.194Z,11.50
2022-12-25T14:29:01.219Z,9.90
2022-12-25T14:31:03.811Z,10.77
2022-12-25T14:33:09.700Z,10.60
2022-12-25T14:35:12.323Z,10.13
2022-12-25T14:37:20.791Z,9.97
2022-12-25T14:39:26.537Z,9.43
2022-12-25T14:41:34.396Z,10.53
2022-12-25T14:43:36.483Z,9.67
2022-12-25T14:45:38.771Z,9.30
2022-12-25T14:47:52.037Z,10.27
2022-12-25T14:49:54.698Z,10.70
2022-12-25T14:51:56.878Z,9.73
2022-12-25T14:54:06.524Z,9.40
2022-12-25T14:56:11.188Z,10.20
2022-12-25T14:58:20.284Z,11.07
2022-12-25T15:00:40.848Z,9.50
2022-12-25T15:02:45.194Z,11.10
2022-12-25T15:04:47.517Z,9.53
2022-12-25T15:06:53.560Z,9.50
2022-12-25T15:08:58.290Z,9.90
2022-12-25T15:11:02.539Z,10.43
2022-12-25T15:13:05.423Z,10.70
2022-12-25T15:15:07.799Z,15.20
2022-12-25T15:17:19.876Z,17.87
2022-12-25T15:19:31.730Z,17.43
2022-12-25T15:21:37.590Z,15.33
2022-12-25T15:23:39.556Z,18.00
2022-12-25T15:25:42.166Z,14.80
2022-12-25T15:27:44.177Z,16.53
2022-12-25T15:30:09.101Z,47.47
2022-12-25T15:32:21.496Z,97.03
2022-12-25T15:34:26.463Z,51.33
2022-12-25T15:36:29.068Z,18.67
2022-12-25T15:38:36.486Z,14.50
2022-12-25T15:40:39.564Z,11.97
2022-12-25T15:42:44.892Z,11.07
2022-12-25T15:44:47.528Z,12.17
2022-12-25T15:46:49.811Z,12.40
2022-12-25T15:48:51.856Z,12.33
2022-12-25T15:50:53.922Z,11.70
2022-12-25T15:52:55.940Z,11.17
2022-12-25T15:54:57.954Z,9.97
2022-12-25T15:57:02.549Z,12.00
2022-12-25T15:59:04.539Z,11.73
2022-12-25T16:01:06.571Z,9.40
2022-12-25T16:03:08.573Z,9.43
2022-12-25T16:05:11.026Z,10.43
2022-12-25T16:07:21.668Z,9.77
2022-12-25T16:09:23.644Z,11.20
2022-12-25T16:11:25.687Z,10.90
2022-12-25T16:13:27.697Z,13.27
2022-12-25T16:15:29.706Z,13.60
2022-12-25T16:17:31.754Z,13.37
2022-12-25T16:19:33.912Z,11.97
2022-12-25T16:21:41.744Z,11.87
2022-12-25T16:23:43.957Z,13.00
2022-12-25T16:25:45.939Z,15.20
2022-12-25T16:27:48.114Z,11.90
2022-12-25T16:29:50.104Z,14.80
2022-12-25T16:31:52.093Z,14.60
2022-12-25T16:33:54.489Z,13.67
2022-12-25T16:35:56.486Z,12.67
2022-12-25T16:37:58.599Z,12.80
2022-12-25T16:40:00.737Z,13.80
2022-12-25T16:42:02.809Z,11.70
2022-12-25T16:44:14.927Z,12.27
2022-12-25T16:46:19.839Z,11.37
2022-12-25T16:48:21.891Z,12.83
2022-12-25T16:50:24.086Z,11.37
2022-12-25T16:52:26.279Z,12.70
2022-12-25T16:54:28.271Z,13.23
2022-12-25T16:56:31.074Z,11.87
2022-12-25T16:58:33.491Z,10.70
2022-12-25T17:00:35.597Z,12.33
2022-12-25T17:02:37.828Z,12.20
2022-12-25T17:04:39.938Z,11.57
2022-12-25T17:06:42.029Z,12.70
2022-12-25T17:08:44.036Z,12.40
2022-12-25T17:10:46.164Z,12.37
2022-12-25T17:12:48.344Z,12.77
2022-12-25T17:14:50.838Z,11.93
2022-12-25T17:16:52.997Z,12.20
2022-12-25T17:18:56.821Z,14.40
2022-12-25T17:20:58.770Z,12.20
2022-12-25T17:23:00.973Z,14.23
2022-12-25T17:25:03.131Z,14.43
2022-12-25T17:27:08.582Z,13.10
2022-12-25T17:29:12.831Z,14.10
2022-12-25T17:31:18.632Z,13.67
2022-12-25T17:33:20.726Z,12.63
2022-12-25T17:35:23.453Z,12.47
2022-12-25T17:37:25.427Z,11.50
2022-12-25T17:39:27.622Z,14.90
2022-12-25T17:41:30.101Z,14.33
2022-12-25T17:43:33.536Z,15.30
2022-12-25T17:45:38.375Z,16.90
2022-12-25T17:47:40.404Z,14.33
2022-12-25T17:49:42.412Z,12.67
2022-12-25T17:51:44.879Z,14.70
2022-12-25T17:53:50.195Z,14.50
2022-12-25T17:55:56.483Z,12.67
2022-12-25T17:57:58.532Z,10.63
2022-12-25T18:00:00.567Z,11.70
2022-12-25T18:02:02.753Z,12.67
2022-12-25T18:04:06.370Z,12.27
2022-12-25T18:06:12.130Z,11.43
2022-12-25T18:08:15.149Z,11.60
2022-12-25T18:10:17.223Z,10.87
2022-12-25T18:12:19.228Z,11.30
2022-12-25T18:14:21.587Z,11.57
2022-12-25T18:16:25.407Z,12.47
2022-12-25T18:18:27.497Z,12.23
2022-12-25T18:20:35.877Z,11.70
2022-12-25T18:22:41.483Z,13.43
2022-12-25T18:24:43.542Z,13.60
2022-12-25T18:26:45.913Z,13.67
2022-12-25T18:28:49.092Z,12.77
2022-12-25T18:30:51.039Z,13.53
2022-12-25T18:32:54.259Z,14.47
2022-12-25T18:34:56.368Z,13.47
2022-12-25T18:37:03.005Z,13.30
2022-12-25T18:39:05.195Z,15.03
2022-12-25T18:41:09.129Z,14.17
2022-12-25T18:43:11.578Z,13.23
2022-12-25T18:45:15.018Z,14.43
2022-12-25T18:47:17.029Z,11.83
2022-12-25T18:49:19.006Z,13.00
2022-12-25T18:51:20.970Z,12.47
2022-12-25T18:53:23.977Z,12.20
2022-12-25T18:55:26.033Z,13.60
2022-12-25T18:57:28.071Z,12.73
2022-12-25T18:59:30.113Z,13.47
2022-12-25T19:01:32.239Z,12.50
2022-12-25T19:03:34.362Z,12.37
2022-12-25T19:05:39.574Z,13.20
2022-12-25T19:07:41.643Z,12.43
2022-12-25T19:09:43.877Z,13.57
2022-12-25T19:11:46.917Z,12.57
2022-12-25T19:13:49.065Z,12.73
2022-12-25T19:15:51.561Z,13.07
2022-12-25T19:17:53.686Z,12.77
2022-12-25T19:19:55.627Z,12.30
2022-12-25T19:21:58.338Z,13.60
2022-12-25T19:24:00.394Z,13.53
2022-12-25T19:26:05.597Z,11.67
2022-12-25T19:28:07.731Z,10.80
2022-12-25T19:30:10.414Z,13.17
2022-12-25T19:32:12.967Z,12.47
2022-12-25T19:34:15.160Z,12.50
2022-12-25T19:36:17.280Z,11.77
2022-12-25T19:38:20.299Z,12.20
2022-12-25T19:40:22.723Z,11.70
2022-12-25T19:42:24.996Z,12.70
2022-12-25T19:44:27.051Z,12.70
2022-12-25T19:46:31.853Z,12.83
2022-12-25T19:48:34.941Z,12.37
2022-12-25T19:50:37.047Z,12.83
2022-12-25T19:52:39.115Z,12.27
2022-12-25T19:54:41.056Z,14.10
2022-12-25T19:56:43.466Z,12.50
2022-12-25T19:58:45.937Z,11.40
2022-12-25T20:01:02.384Z,12.83
2022-12-25T20:03:04.627Z,12.43
2022-12-25T20:05:07.005Z,13.27
2022-12-25T20:07:09.058Z,14.10
2022-12-25T20:09:14.194Z,12.20
2022-12-25T20:11:17.360Z,12.10
2022-12-25T20:13:20.211Z,12.10
2022-12-25T20:15:22.229Z,12.00
2022-12-25T20:17:24.246Z,12.20
2022-12-25T20:19:26.325Z,12.40
2022-12-25T20:21:29.845Z,12.13
2022-12-25T20:23:32.677Z,13.03
2022-12-25T20:25:34.816Z,12.17
2022-12-25T20:27:36.762Z,11.67
2022-12-25T20:29:38.791Z,12.50
2022-12-25T20:31:40.844Z,11.17
2022-12-25T20:33:42.921Z,12.20
2022-12-25T20:35:46.126Z,12.60
2022-12-25T20:37:48.081Z,12.00
2022-12-25T20:39:50.116Z,12.67
2022-12-25T20:41:52.085Z,13.20
2022-12-25T20:43:54.983Z,12.20
2022-12-25T20:45:57.680Z,12.20
2022-12-25T20:48:00.288Z,11.43
2022-12-25T20:50:02.659Z,12.60
2022-12-25T20:52:05.878Z,12.43
2022-12-25T20:54:09.969Z,11.10
2022-12-25T20:56:13.882Z,11.57
2022-12-25T20:58:16.696Z,11.10
2022-12-25T21:00:18.810Z,11.67
2022-12-25T21:02:33.899Z,11.77
2022-12-25T21:04:38.299Z,11.00
2022-12-25T21:06:40.566Z,11.30
2022-12-25T21:08:42.867Z,11.27
2022-12-25T21:10:47.671Z,10.73
2022-12-25T21:12:49.775Z,11.67
2022-12-25T21:14:51.931Z,11.63
2022-12-25T21:16:53.969Z,11.33
2022-12-25T21:18:56.028Z,11.30
2022-12-25T21:20:59.315Z,11.53
2022-12-25T21:23:01.418Z,10.97
2022-12-25T21:25:03.791Z,11.73
2022-12-25T21:27:05.797Z,11.70
2022-12-25T21:29:07.930Z,11.67
2022-12-25T21:31:10.101Z,10.03
2022-12-25T21:33:32.010Z,11.60
2022-12-25T21:35:37.097Z,9.97
2022-12-25T21:37:39.081Z,10.30
2022-12-25T21:39:41.245Z,10.67
2022-12-25T21:41:43.263Z,9.97
2022-12-25T21:43:46.044Z,10.63
2022-12-25T21:45:48.190Z,9.50
2022-12-25T21:48:01.494Z,9.37
2022-12-25T21:50:23.650Z,10.30
2022-12-25T21:52:25.643Z,9.10
2022-12-25T21:54:27.600Z,11.13
2022-12-25T21:56:30.908Z,9.27
2022-12-25T21:58:32.951Z,10.30
2022-12-25T22:00:34.904Z,8.90
2022-12-25T22:02:37.013Z,9.37
2022-12-25T22:04:39.348Z,9.80
2022-12-25T22:07:00.569Z,10.00
2022-12-25T22:09:05.864Z,9.87
2022-12-25T22:11:28.451Z,9.93
2022-12-25T22:13:49.117Z,9.23
2022-12-25T22:16:09.925Z,8.83
2022-12-25T22:18:30.382Z,8.50
2022-12-25T22:20:36.742Z,8.80
2022-12-25T22:22:38.873Z,8.90
2022-12-25T22:24:40.966Z,8.13
2022-12-25T22:26:44.564Z,7.17
2022-12-25T22:28:46.643Z,7.87
2022-12-25T22:30:48.839Z,7.67
2022-12-25T22:32:52.269Z,7.30
2022-12-25T22:34:54.356Z,6.37
2022-12-25T22:36:56.451Z,8.40
2022-12-25T22:38:58.520Z,6.90
2022-12-25T22:41:06.682Z,7.70
2022-12-25T22:43:08.720Z,6.27
2022-12-25T22:45:11.016Z,6.07
2022-12-25T22:47:13.054Z,6.60
2022-12-25T22:49:17.757Z,6.50
2022-12-25T22:51:19.732Z,6.53
2022-12-25T22:53:21.883Z,10.23
2022-12-25T22:55:23.993Z,6.67
2022-12-25T22:57:26.062Z,7.47
2022-12-25T22:59:28.251Z,6.07
2022-12-25T23:01:30.927Z,6.47
2022-12-25T23:03:33.117Z,6.33
2022-12-25T23:05:35.222Z,6.33
2022-12-25T23:07:37.459Z,6.63
2022-12-25T23:09:39.497Z,6.40
2022-12-25T23:11:42.192Z,6.23
2022-12-25T23:14:03.219Z,6.60
2022-12-25T23:16:05.725Z,6.00
2022-12-25T23:18:27.002Z,6.50
2022-12-25T23:20:47.383Z,6.60
2022-12-25T23:23:07.768Z,6.40
2022-12-25T23:25:33.264Z,5.80
2022-12-25T23:27:35.374Z,5.70
2022-12-25T23:29:37.659Z,5.80
2022-12-25T23:31:40.853Z,5.70
2022-12-25T23:33:42.956Z,5.47
2022-12-25T23:35:44.966Z,5.40
2022-12-25T23:37:47.108Z,5.97
2022-12-25T23:39:50.133Z,5.03
2022-12-25T23:41:52.122Z,5.80
2022-12-25T23:43:54.082Z,5.43
2022-12-25T23:45:56.065Z,5.60
2022-12-25T23:47:58.067Z,6.20
2022-12-25T23:50:00.285Z,5.00
2022-12-25T23:52:02.263Z,5.50
2022-12-25T23:54:07.315Z,4.83
2022-12-25T23:56:10.573Z,5.63
2022-12-25T23:58:12.746Z,5.43
